KCBF/CBF METAR and TAF weather

Enter ICAO airport designator
Station Type Date Time Source
KCBF METAR 2019/06/25 00:15 UTC NOAA

KCBF 250015Z AUTO 25012KT 10SM CLR 25/11 A2975 RMK AO2


Station Type Date Time Source
KCBF Decoded METAR 2019/06/25 00:15 UTC NOAA

Council Bluffs, IA, United States (KCBF) 41-16N 095-46W
Jun 24, 2019 - 08:15 PM EDT / 2019.06.25 0015 UTC
Wind: from the WSW (250 degrees) at 14 MPH (12 KT):0
Visibility: 10 mile(s):0
Sky conditions: clear
Temperature: 77 F (25 C)
Dew Point: 51 F (11 C)
Relative Humidity: 41%
Pressure (altimeter): 29.75 in. Hg (1007 hPa)
ob: KCBF 250015Z AUTO 25012KT 10SM CLR 25/11 A2975 RMK AO2
cycle: 0

Station Type Date Time Source
KCBF TAF UTC NOAA

Error!

Example: see airport list